Time;durP1;ratioP1;P1;durP2;ratioP2;P2;SDS_P1;SDS_P2;PMS_P1;PMS_P2;Temp;Humidity;BMP_temperature;BMP_pressure;BME280_temperature;BME280_humidity;BME280_pressure;Samples;Min_cycle;Max_cycle;Signal;HPM_P1;HPM_P2
2023/06/12 00:01:36;;;;;;;2.92;2.40;;;;;;;24.22;53.44;96055.66;5043480;28;20367;-30
2023/06/12 00:04:17;;;;;;;3.13;2.15;;;;;;;24.09;53.63;96055.56;5050934;28;20416;-28
2023/06/12 00:06:43;;;;;;;3.20;2.45;;;;;;;24.08;53.56;96053.31;5036339;28;20079;-29
2023/06/12 00:09:09;;;;;;;3.00;2.70;;;;;;;24.24;53.46;96053.09;5034856;28;20043;-30
2023/06/12 00:11:34;;;;;;;4.28;2.42;;;;;;;24.26;53.23;96053.31;5036417;28;20023;-29
2023/06/12 00:14:00;;;;;;;4.30;2.40;;;;;;;24.03;53.90;96056.91;5049583;28;20477;-29
2023/06/12 00:16:26;;;;;;;2.88;2.30;;;;;;;24.09;53.06;96060.34;5038994;28;20017;-29
2023/06/12 00:18:52;;;;;;;2.47;2.22;;;;;;;24.15;53.04;96061.03;5040549;28;20021;-29
2023/06/12 00:21:19;;;;;;;3.05;2.30;;;;;;;24.20;52.86;96047.09;5036247;28;20032;-28
2023/06/12 00:23:45;;;;;;;5.10;2.58;;;;;;;24.25;53.16;96053.84;5034769;28;20013;-29
2023/06/12 00:26:11;;;;;;;3.15;2.50;;;;;;;24.26;52.83;96045.00;5035897;28;20443;-29
2023/06/12 00:28:36;;;;;;;3.17;2.30;;;;;;;24.27;52.96;96051.28;5043774;28;20025;-29
2023/06/12 00:31:02;;;;;;;2.55;2.35;;;;;;;24.39;52.29;96054.66;5048275;28;20095;-29
2023/06/12 00:33:27;;;;;;;4.18;2.22;;;;;;;24.04;52.82;96055.63;5037589;28;20021;-29
2023/06/12 00:35:53;;;;;;;4.40;2.83;;;;;;;24.19;52.93;96050.38;5035734;28;20030;-29
2023/06/12 00:38:20;;;;;;;2.70;2.17;;;;;;;24.11;53.11;96049.50;5035803;28;20032;-30
2023/06/12 00:40:45;;;;;;;3.83;2.40;;;;;;;24.22;52.53;96055.66;5043072;28;20033;-28
2023/06/12 00:43:11;;;;;;;3.00;2.42;;;;;;;24.18;52.56;96043.34;5040394;28;20349;-30
2023/06/12 00:45:36;;;;;;;5.07;2.45;;;;;;;23.98;52.95;96041.88;5035295;28;20366;-31
2023/06/12 00:48:03;;;;;;;5.45;2.63;;;;;;;24.09;52.49;96043.75;5034136;28;20034;-29
2023/06/12 00:50:29;;;;;;;3.22;2.35;;;;;;;24.07;52.55;96046.28;5035057;28;20567;-29
2023/06/12 00:52:57;;;;;;;2.92;2.47;;;;;;;24.10;52.53;96048.00;5035527;28;20033;-29
2023/06/12 00:55:23;;;;;;;6.05;2.45;;;;;;;23.99;53.01;96038.56;5040480;28;20053;-29
2023/06/12 00:57:49;;;;;;;3.22;2.30;;;;;;;24.20;52.17;96046.34;5042689;28;20029;-30
2023/06/12 01:00:17;;;;;;;5.80;2.55;;;;;;;24.06;52.71;96042.00;5042594;28;20017;-29
2023/06/12 01:02:45;;;;;;;3.92;2.47;;;;;;;23.98;52.72;96037.06;5034691;28;20022;-29
2023/06/12 01:05:14;;;;;;;4.05;2.60;;;;;;;24.04;53.02;96036.25;5034060;28;20036;-29
2023/06/12 01:08:00;;;;;;;3.42;2.50;;;;;;;23.99;53.52;96038.56;5035158;28;20021;-30
2023/06/12 01:10:33;;;;;;;3.97;2.40;;;;;;;24.03;53.23;96037.50;5035133;28;20029;-28
2023/06/12 01:12:59;;;;;;;;;;;;;;;24.00;53.20;96034.53;5034205;28;20076;-29
2023/06/12 01:15:25;;;;;;;3.45;2.83;;;;;;;23.99;53.31;96038.56;5035549;28;19912;-29
2023/06/12 01:17:50;;;;;;;2.85;2.40;;;;;;;24.12;53.16;96028.81;5034793;28;20071;-30
2023/06/12 01:20:17;;;;;;;3.83;2.60;;;;;;;23.79;53.81;96025.25;5035054;28;20029;-29
2023/06/12 01:22:49;;;;;;;3.90;2.40;;;;;;;24.15;53.32;96022.97;5038504;28;20017;-29
2023/06/12 01:26:02;;;;;;;4.25;2.20;;;;;;;23.83;53.79;96028.47;5037058;28;20025;-28
2023/06/12 01:28:37;;;;;;;2.88;2.58;;;;;;;23.94;53.48;96033.13;5034095;28;20029;-29
2023/06/12 01:31:25;;;;;;;3.20;2.47;;;;;;;23.98;53.52;96014.91;5040126;28;20070;-29
2023/06/12 01:34:02;;;;;;;3.53;2.95;;;;;;;23.91;53.57;96015.53;5027009;28;20075;-30
2023/06/12 01:36:34;;;;;;;3.78;3.10;;;;;;;23.80;53.68;96026.00;5034817;28;20028;-29
2023/06/12 01:39:01;;;;;;;3.03;2.50;;;;;;;23.75;54.03;96021.28;5038367;28;20108;-29
2023/06/12 01:41:29;;;;;;;2.60;2.40;;;;;;;23.95;53.15;96024.28;5037515;28;20025;-29
2023/06/12 01:43:55;;;;;;;3.88;2.78;;;;;;;23.94;53.22;96025.56;5041203;28;20013;-29
2023/06/12 01:46:20;;;;;;;3.50;2.58;;;;;;;23.80;53.81;96026.00;5034777;28;20040;-29
2023/06/12 01:48:46;;;;;;;4.63;2.80;;;;;;;23.86;53.28;96021.16;5034171;28;20465;-29
2023/06/12 01:51:11;;;;;;;3.47;2.45;;;;;;;23.87;53.10;96019.84;5034447;28;20487;-29
2023/06/12 01:53:37;;;;;;;6.22;2.78;;;;;;;23.71;53.31;96018.09;5041265;28;20436;-29
2023/06/12 01:56:02;;;;;;;2.85;2.55;;;;;;;23.91;52.86;96020.31;5040778;28;20055;-29
2023/06/12 01:58:28;;;;;;;4.55;2.58;;;;;;;23.83;52.93;96014.63;5033939;28;20060;-29
2023/06/12 02:00:55;;;;;;;3.55;2.63;;;;;;;23.84;53.00;96013.38;5034561;28;20349;-29
2023/06/12 02:03:22;;;;;;;3.33;2.40;;;;;;;23.82;52.40;96012.38;5034362;28;20045;-29
2023/06/12 02:05:48;;;;;;;3.00;2.28;;;;;;;23.70;52.99;96009.03;5040954;28;20017;-29
2023/06/12 02:08:14;;;;;;;2.90;2.60;;;;;;;23.63;52.86;96013.13;5036265;28;20024;-29
2023/06/12 02:10:39;;;;;;;3.85;2.10;;;;;;;23.81;52.29;96011.63;5039060;28;20362;-30
2023/06/12 02:13:05;;;;;;;2.50;2.30;;;;;;;23.72;51.83;96009.25;5041470;28;20025;-29
2023/06/12 02:15:31;;;;;;;2.40;2.20;;;;;;;23.79;52.22;96011.41;5033879;28;20017;-31
2023/06/12 02:17:56;;;;;;;5.22;2.45;;;;;;;23.75;52.06;96016.50;5033662;28;20433;-29
2023/06/12 02:20:22;;;;;;;2.67;2.20;;;;;;;23.66;52.51;96016.88;5041205;28;20508;-29
2023/06/12 02:22:47;;;;;;;2.75;2.03;;;;;;;23.70;52.01;96016.59;5040792;28;20021;-29
2023/06/12 02:25:13;;;;;;;2.88;2.22;;;;;;;23.62;52.79;96010.88;5033526;28;20061;-28
2023/06/12 02:27:38;;;;;;;2.45;2.10;;;;;;;23.72;52.19;96005.72;5034329;28;20021;-29
2023/06/12 02:30:04;;;;;;;2.80;2.33;;;;;;;23.76;52.10;96015.22;5033805;28;20022;-29
2023/06/12 02:32:33;;;;;;;4.63;2.45;;;;;;;23.72;52.32;96014.03;5041761;28;20082;-29
2023/06/12 02:35:00;;;;;;;2.80;2.50;;;;;;;23.59;52.37;96018.22;5037945;28;20032;-30
2023/06/12 02:37:27;;;;;;;3.35;2.17;;;;;;;23.68;51.98;96022.63;5036469;28;20017;-28
2023/06/12 02:39:53;;;;;;;3.53;2.45;;;;;;;23.71;52.15;96007.00;5033887;28;20548;-29
2023/06/12 02:42:18;;;;;;;4.57;3.03;;;;;;;23.51;52.43;96005.47;5032264;28;20120;-28
2023/06/12 02:44:45;;;;;;;5.35;2.97;;;;;;;23.70;52.71;96008.28;5034893;28;20025;-30
2023/06/12 02:47:10;;;;;;;3.17;2.25;;;;;;;23.58;52.65;96004.91;5042077;28;20496;-29
2023/06/12 02:49:37;;;;;;;5.22;2.40;;;;;;;23.57;52.82;96006.19;5052005;28;20021;-28
2023/06/12 02:52:03;;;;;;;4.30;2.35;;;;;;;23.46;53.02;96006.28;5044528;28;20107;-29
2023/06/12 02:54:29;;;;;;;2.55;2.33;;;;;;;23.59;52.50;95990.53;5036028;28;20477;-28
2023/06/12 02:56:54;;;;;;;4.10;2.30;;;;;;;23.72;52.05;95998.19;5037431;28;20073;-30
2023/06/12 02:59:22;;;;;;;3.72;2.40;;;;;;;23.65;52.32;96001.53;5044944;28;20473;-29
2023/06/12 03:01:48;;;;;;;3.53;2.50;;;;;;;23.57;52.32;96004.16;5037346;28;20029;-28
2023/06/12 03:04:21;;;;;;;2.80;2.40;;;;;;;23.54;52.29;96004.44;5037713;28;20060;-28
2023/06/12 03:06:53;;;;;;;3.85;2.67;;;;;;;23.60;52.33;96008.66;5037680;28;20420;-28
2023/06/12 03:09:19;;;;;;;5.28;2.40;;;;;;;23.32;52.53;95999.16;5037617;28;20029;-29
2023/06/12 03:11:46;;;;;;;2.40;2.20;;;;;;;23.64;51.83;96008.34;5037465;28;20092;-29
2023/06/12 03:14:14;;;;;;;3.70;2.50;;;;;;;23.22;52.54;96007.84;5045181;28;20025;-28
2023/06/12 03:16:40;;;;;;;5.20;2.42;;;;;;;23.15;52.79;96008.41;5043338;28;20026;-28
2023/06/12 03:19:06;;;;;;;2.53;2.30;;;;;;;23.15;53.32;96013.94;5044024;28;20086;-28
2023/06/12 03:21:32;;;;;;;2.83;2.40;;;;;;;23.31;52.39;96014.25;5043922;28;20096;-30
2023/06/12 03:23:57;;;;;;;3.90;2.60;;;;;;;23.37;52.10;96012.91;5037233;28;20117;-29
2023/06/12 03:26:24;;;;;;;3.30;2.60;;;;;;;23.36;52.69;96024.53;5036008;28;20029;-28
2023/06/12 03:28:50;;;;;;;2.58;2.35;;;;;;;23.57;51.99;96023.53;5044143;28;20491;-29
2023/06/12 03:31:15;;;;;;;3.75;2.17;;;;;;;23.48;52.24;96017.59;5037085;28;20029;-28
2023/06/12 03:33:41;;;;;;;3.65;2.10;;;;;;;23.37;52.45;96020.50;5037037;28;20021;-29
2023/06/12 03:36:07;;;;;;;3.83;2.33;;;;;;;23.37;52.37;96018.44;5035825;28;20024;-29
2023/06/12 03:38:33;;;;;;;3.67;2.50;;;;;;;23.32;51.80;96018.53;5036664;28;20505;-29
2023/06/12 03:40:58;;;;;;;3.50;2.05;;;;;;;23.37;52.42;96012.19;5040290;28;20090;-29
2023/06/12 03:43:23;;;;;;;2.80;2.28;;;;;;;23.40;52.08;96022.19;5040676;28;20022;-28
2023/06/12 03:45:49;;;;;;;3.15;1.90;;;;;;;23.43;52.18;96015.63;5044306;28;20030;-29
2023/06/12 03:48:14;;;;;;;3.80;2.70;;;;;;;23.36;52.16;96019.00;5036618;28;20465;-29
2023/06/12 03:50:40;;;;;;;3.95;2.15;;;;;;;23.33;52.29;96020.03;5036641;28;20071;-30
2023/06/12 03:53:05;;;;;;;3.00;2.53;;;;;;;23.56;51.30;96019.25;5036857;28;20029;-29
2023/06/12 03:55:32;;;;;;;5.22;2.53;;;;;;;23.18;52.62;96021.19;5036680;28;20045;-28
2023/06/12 03:57:57;;;;;;;2.17;1.98;;;;;;;23.33;51.92;96025.56;5043168;28;20029;-30
2023/06/12 04:00:23;;;;;;;2.38;2.00;;;;;;;23.44;51.81;96026.19;5036553;28;20039;-28
2023/06/12 04:02:48;;;;;;;2.30;2.10;;;;;;;23.35;52.03;96025.78;5035749;28;20024;-29
2023/06/12 04:05:14;;;;;;;3.20;2.35;;;;;;;23.45;51.78;96026.94;5036981;28;20037;-29
2023/06/12 04:07:39;;;;;;;5.55;2.40;;;;;;;23.37;51.77;96023.25;5041527;28;20021;-28
2023/06/12 04:10:08;;;;;;;4.28;2.50;;;;;;;23.41;52.03;96027.22;5037069;28;20112;-30
2023/06/12 04:12:33;;;;;;;4.13;2.20;;;;;;;23.59;51.59;96034.84;5047078;28;20021;-29
2023/06/12 04:14:59;;;;;;;4.10;2.35;;;;;;;23.37;52.18;96037.09;5039384;28;20088;-29
2023/06/12 04:17:24;;;;;;;2.47;2.25;;;;;;;23.46;52.19;96042.25;5043326;28;20016;-29
2023/06/12 04:19:50;;;;;;;4.00;2.25;;;;;;;23.50;51.80;96043.47;5036521;28;20551;-30
2023/06/12 04:22:16;;;;;;;2.72;2.15;;;;;;;23.51;51.63;96038.69;5043505;28;20075;-29
2023/06/12 04:24:42;;;;;;;4.05;2.38;;;;;;;23.47;51.85;96038.22;5043168;28;20104;-29
2023/06/12 04:27:11;;;;;;;2.55;2.15;;;;;;;23.46;52.00;96031.19;5035565;28;20048;-29
2023/06/12 04:29:42;;;;;;;4.63;2.28;;;;;;;23.49;52.13;96038.47;5036392;28;20024;-29
2023/06/12 04:32:09;;;;;;;2.58;2.15;;;;;;;23.55;51.69;96036.38;5035806;28;20025;-29
2023/06/12 04:34:41;;;;;;;3.72;2.30;;;;;;;23.66;51.79;96027.94;5042858;28;20388;-28
2023/06/12 04:37:11;;;;;;;3.77;2.27;;;;;;;23.50;52.46;96037.94;5041258;28;20021;-28
2023/06/12 04:39:40;;;;;;;3.92;2.88;;;;;;;23.47;52.40;96027.91;5035111;28;20487;-29
2023/06/12 04:42:08;;;;;;;6.03;2.53;;;;;;;23.38;52.70;96024.72;5035909;28;20029;-30
2023/06/12 04:44:34;;;;;;;5.35;2.63;;;;;;;23.52;52.49;96029.13;5034077;28;20053;-32
2023/06/12 04:47:14;;;;;;;3.83;2.30;;;;;;;23.65;52.35;96023.69;5038651;28;20111;-29
2023/06/12 04:49:41;;;;;;;2.65;2.40;;;;;;;23.46;52.78;96023.66;5037825;28;20057;-29
2023/06/12 04:52:08;;;;;;;3.45;2.38;;;;;;;23.60;52.68;96030.81;5027956;28;20026;-29
2023/06/12 04:54:38;;;;;;;2.90;2.50;;;;;;;23.57;52.56;96031.09;5041439;28;20021;-30
2023/06/12 04:57:12;;;;;;;3.97;2.60;;;;;;;23.37;53.03;96028.78;5040750;28;20049;-29
2023/06/12 04:59:40;;;;;;;3.42;2.58;;;;;;;23.41;53.25;96026.47;5035498;28;20037;-29
2023/06/12 05:02:08;;;;;;;3.20;2.25;;;;;;;23.58;52.66;96033.34;5035172;28;20041;-30
2023/06/12 05:04:35;;;;;;;2.90;2.60;;;;;;;23.54;52.97;96029.34;5042332;28;20527;-29
2023/06/12 05:07:03;;;;;;;3.08;2.05;;;;;;;23.53;52.92;96028.59;5034814;28;20025;-29
2023/06/12 05:09:29;;;;;;;3.28;2.30;;;;;;;23.56;52.88;96029.59;5034571;28;20075;-30
2023/06/12 05:11:54;;;;;;;2.97;2.40;;;;;;;23.69;52.48;96026.16;5034789;28;20491;-28
2023/06/12 05:14:20;;;;;;;3.20;2.20;;;;;;;23.55;52.69;96036.38;5033557;28;20025;-29
2023/06/12 05:16:46;;;;;;;3.00;2.28;;;;;;;23.60;52.90;96035.59;5040116;28;20020;-29
2023/06/12 05:19:12;;;;;;;3.60;2.97;;;;;;;23.67;52.97;96029.44;5037117;28;20108;-29
2023/06/12 05:21:41;;;;;;;3.17;2.88;;;;;;;23.61;53.02;96032.28;5042080;28;20030;-29
2023/06/12 05:24:07;;;;;;;4.03;2.33;;;;;;;23.66;53.04;96039.00;5034820;28;20523;-30
2023/06/12 05:26:33;;;;;;;2.88;2.47;;;;;;;23.67;53.09;96039.75;5035213;28;20041;-29
2023/06/12 05:28:58;;;;;;;3.83;2.72;;;;;;;23.70;53.10;96042.25;5034722;28;20071;-29
2023/06/12 05:31:23;;;;;;;3.95;2.55;;;;;;;23.62;52.96;96044.84;5047992;28;20029;-29
2023/06/12 05:33:49;;;;;;;3.75;3.17;;;;;;;23.61;53.28;96046.09;5040362;28;20028;-29
2023/06/12 05:36:14;;;;;;;3.22;2.65;;;;;;;23.69;53.43;96049.06;5040899;28;20029;-29
2023/06/12 05:38:45;;;;;;;4.07;2.70;;;;;;;23.73;53.19;96043.97;5035465;28;20026;-29
2023/06/12 05:41:12;;;;;;;5.78;2.95;;;;;;;23.80;52.90;96042.63;5034674;28;20029;-29
2023/06/12 05:43:39;;;;;;;3.30;2.90;;;;;;;23.69;53.47;96051.81;5041497;28;20025;-29
2023/06/12 05:46:05;;;;;;;3.55;2.55;;;;;;;23.72;53.40;96050.78;5037668;28;20399;-29
2023/06/12 05:48:30;;;;;;;2.75;2.42;;;;;;;23.78;53.58;96059.00;5038022;28;20021;-29
2023/06/12 05:50:56;;;;;;;5.43;3.20;;;;;;;23.70;53.27;96050.56;5034422;28;20036;-29
2023/06/12 05:53:21;;;;;;;3.58;2.40;;;;;;;23.71;53.32;96046.50;5034875;28;20036;-29
2023/06/12 05:55:47;;;;;;;4.40;2.67;;;;;;;23.72;53.32;96053.56;5039449;28;20048;-29
2023/06/12 05:58:12;;;;;;;3.15;2.42;;;;;;;23.74;53.15;96056.53;5041633;28;20043;-30
2023/06/12 06:00:38;;;;;;;3.30;2.67;;;;;;;23.71;53.16;96052.06;5041206;28;20442;-29
2023/06/12 06:03:04;;;;;;;3.00;2.67;;;;;;;23.69;53.30;96054.59;5034591;28;20032;-29
2023/06/12 06:05:30;;;;;;;3.85;2.80;;;;;;;23.91;52.74;96054.28;5034121;28;20101;-29
2023/06/12 06:07:55;;;;;;;3.10;2.55;;;;;;;23.87;52.97;96053.09;5033627;28;20100;-29
2023/06/12 06:10:21;;;;;;;2.75;2.42;;;;;;;23.78;52.94;96061.78;5034352;28;20040;-28
2023/06/12 06:12:46;;;;;;;3.13;2.67;;;;;;;23.79;52.95;96057.72;5032472;28;20028;-29
2023/06/12 06:15:12;;;;;;;4.25;2.70;;;;;;;23.92;52.70;96053.03;5034680;28;20435;-29
2023/06/12 06:17:37;;;;;;;2.70;2.47;;;;;;;23.90;52.92;96061.09;5040650;28;20026;-29
2023/06/12 06:20:05;;;;;;;4.20;2.35;;;;;;;23.87;53.08;96053.09;5033887;28;20063;-28
2023/06/12 06:22:31;;;;;;;4.97;2.80;;;;;;;23.85;52.83;96052.88;5041328;28;20027;-28
2023/06/12 06:24:57;;;;;;;3.50;2.17;;;;;;;23.88;53.17;96049.03;5033727;28;20021;-29
2023/06/12 06:27:22;;;;;;;2.90;2.58;;;;;;;23.78;53.75;96065.28;5041300;28;20446;-29
2023/06/12 06:29:48;;;;;;;3.22;2.47;;;;;;;24.00;53.02;96061.47;5040887;28;20022;-31
2023/06/12 06:32:13;;;;;;;4.57;2.38;;;;;;;24.02;52.93;96072.78;5040904;28;20017;-29
2023/06/12 06:34:39;;;;;;;4.00;2.50;;;;;;;23.97;53.02;96063.28;5033820;28;20037;-29
2023/06/12 06:37:04;;;;;;;3.15;2.85;;;;;;;23.88;53.26;96071.19;5039925;28;20045;-29
2023/06/12 06:39:29;;;;;;;3.83;2.60;;;;;;;24.06;53.26;96076.00;5041137;28;20487;-32
2023/06/12 06:41:55;;;;;;;4.13;2.85;;;;;;;23.98;53.06;96064.75;5036564;28;20079;-29
2023/06/12 06:44:20;;;;;;;2.58;2.35;;;;;;;23.97;53.56;96068.81;5038014;28;20018;-29
2023/06/12 06:46:46;;;;;;;4.53;2.70;;;;;;;23.84;53.96;96063.22;5033961;28;20022;-29
2023/06/12 06:49:11;;;;;;;2.78;2.55;;;;;;;23.90;53.66;96069.41;5033853;28;20465;-29
2023/06/12 06:51:37;;;;;;;3.83;2.72;;;;;;;24.00;53.45;96072.53;5033413;28;20388;-28
2023/06/12 06:54:02;;;;;;;4.03;2.83;;;;;;;23.85;53.28;96075.78;5043334;28;20036;-29
2023/06/12 06:56:28;;;;;;;4.85;2.50;;;;;;;23.95;52.95;96067.84;5045649;28;20064;-30
2023/06/12 06:58:53;;;;;;;2.85;2.47;;;;;;;24.09;52.92;96068.69;5033357;28;20029;-29
2023/06/12 07:01:19;;;;;;;2.70;2.15;;;;;;;24.13;52.70;96072.63;5033415;28;20017;-29
2023/06/12 07:03:45;;;;;;;3.72;3.05;;;;;;;24.06;52.60;96066.94;5033605;28;20420;-29
2023/06/12 07:06:10;;;;;;;4.07;2.33;;;;;;;24.10;52.39;96065.38;5031148;28;20037;-30
2023/06/12 07:08:36;;;;;;;3.10;2.53;;;;;;;24.15;52.42;96061.78;5038380;28;20449;-29
2023/06/12 07:11:01;;;;;;;6.90;2.60;;;;;;;24.14;52.68;96065.06;5035409;28;20022;-29
2023/06/12 07:13:27;;;;;;;4.93;2.67;;;;;;;24.10;52.73;96072.94;5040788;28;20019;-29
2023/06/12 07:15:52;;;;;;;5.40;2.88;;;;;;;24.21;52.75;96070.00;5033111;28;20052;-30
2023/06/12 07:18:19;;;;;;;7.20;2.90;;;;;;;24.25;52.87;96067.69;5034576;28;20025;-29
2023/06/12 07:20:45;;;;;;;8.70;2.80;;;;;;;24.21;53.10;96058.94;5039434;28;20109;-29
2023/06/12 07:23:10;;;;;;;3.30;2.80;;;;;;;24.24;53.05;96068.97;5039960;28;20373;-29
2023/06/12 07:25:35;;;;;;;4.55;2.80;;;;;;;24.33;53.17;96066.59;5033764;28;20043;-29
2023/06/12 07:28:02;;;;;;;5.55;2.95;;;;;;;24.26;53.28;96060.88;5033282;28;20024;-29
2023/06/12 07:30:27;;;;;;;4.03;3.10;;;;;;;24.17;53.41;96069.56;5034116;28;20114;-30
2023/06/12 07:32:53;;;;;;;3.58;2.80;;;;;;;24.24;53.25;96069.72;5041271;28;20155;-28
2023/06/12 07:35:18;;;;;;;3.65;3.25;;;;;;;24.25;53.23;96062.16;5043991;28;20020;-29
2023/06/12 07:37:45;;;;;;;3.33;3.03;;;;;;;24.20;53.02;96060.19;5043699;28;20025;-34
2023/06/12 07:40:12;;;;;;;7.65;3.25;;;;;;;24.28;53.03;96064.63;5037020;28;20151;-30
2023/06/12 07:42:38;;;;;;;8.82;3.15;;;;;;;24.32;52.79;96061.56;5035581;28;20025;-29
2023/06/12 07:45:04;;;;;;;5.05;3.35;;;;;;;24.22;52.53;96060.44;5036759;28;20021;-29
2023/06/12 07:47:30;;;;;;;4.70;2.88;;;;;;;24.41;52.40;96052.84;5036760;28;20496;-29
2023/06/12 07:49:55;;;;;;;4.32;3.15;;;;;;;24.41;52.37;96055.63;5043787;28;20021;-29
2023/06/12 07:52:22;;;;;;;5.18;3.30;;;;;;;24.39;52.67;96047.06;5043799;28;20029;-29
2023/06/12 07:54:48;;;;;;;5.47;3.22;;;;;;;24.43;52.46;96050.31;5044188;28;20115;-29
2023/06/12 07:57:23;;;;;;;4.00;3.58;;;;;;;24.53;52.27;96051.41;5035081;28;20084;-31
2023/06/12 07:59:48;;;;;;;4.65;3.40;;;;;;;24.47;52.04;96052.78;5036349;28;20025;-29
2023/06/12 08:02:14;;;;;;;5.78;3.35;;;;;;;24.55;52.16;96048.84;5044018;28;20096;-29
2023/06/12 08:04:41;;;;;;;4.35;2.85;;;;;;;24.39;52.41;96052.63;5042441;28;20491;-29
2023/06/12 08:07:11;;;;;;;3.83;3.20;;;;;;;24.50;52.63;96046.16;5037565;28;20021;-29
2023/06/12 08:09:43;;;;;;;4.20;3.42;;;;;;;24.47;52.45;96047.97;5036420;28;20465;-29
2023/06/12 08:12:11;;;;;;;7.75;3.35;;;;;;;24.46;52.71;96046.47;5037037;28;20366;-29
2023/06/12 08:14:37;;;;;;;5.63;3.40;;;;;;;24.47;52.35;96050.75;5046394;28;20023;-29
2023/06/12 08:17:02;;;;;;;3.50;2.85;;;;;;;24.51;52.58;96053.94;5038698;28;20025;-29
2023/06/12 08:19:28;;;;;;;4.13;3.40;;;;;;;24.36;52.82;96052.94;5036691;28;20526;-30
2023/06/12 08:21:53;;;;;;;4.90;3.50;;;;;;;24.56;52.63;96050.34;5036171;28;20021;-29
2023/06/12 08:24:19;;;;;;;4.82;2.85;;;;;;;24.54;52.70;96052.91;5036050;28;20417;-28
2023/06/12 08:26:45;;;;;;;4.43;3.35;;;;;;;24.41;53.13;96044.53;5035876;28;20025;-29
2023/06/12 08:29:12;;;;;;;5.57;3.65;;;;;;;24.51;52.77;96053.94;5035932;28;20026;-28
2023/06/12 08:31:38;;;;;;;3.40;3.10;;;;;;;24.36;52.92;96045.34;5036045;28;20017;-28
2023/06/12 08:34:03;;;;;;;6.78;2.80;;;;;;;24.40;52.99;96048.56;5041018;28;20086;-29
2023/06/12 08:36:29;;;;;;;5.05;3.10;;;;;;;24.44;52.75;96049.03;5041805;28;20071;-29
2023/06/12 08:38:54;;;;;;;3.42;2.60;;;;;;;24.52;52.83;96060.22;5035529;28;20025;-29
2023/06/12 08:41:21;;;;;;;3.95;3.00;;;;;;;24.37;52.85;96054.41;5035519;28;20108;-29
2023/06/12 08:43:47;;;;;;;5.10;3.40;;;;;;;24.49;52.84;96056.50;5036094;28;20030;-29
2023/06/12 08:46:16;;;;;;;3.78;3.00;;;;;;;24.48;53.03;96063.31;5039926;28;20147;-29
2023/06/12 08:48:43;;;;;;;7.05;3.00;;;;;;;24.50;52.88;96062.78;5042692;28;20074;-29
2023/06/12 08:51:09;;;;;;;4.63;2.97;;;;;;;24.38;53.03;96058.69;5035589;28;20026;-30
2023/06/12 08:53:35;;;;;;;6.13;3.95;;;;;;;24.42;52.99;96057.13;5033938;28;20477;-29
2023/06/12 08:56:01;;;;;;;6.07;3.88;;;;;;;24.43;53.09;96064.16;5042722;28;20069;-30
2023/06/12 08:58:26;;;;;;;6.75;3.75;;;;;;;24.61;52.83;96063.34;5042576;28;20021;-29
2023/06/12 09:00:52;;;;;;;6.53;3.70;;;;;;;24.58;52.87;96066.44;5042574;28;20040;-29
2023/06/12 09:03:19;;;;;;;5.28;3.55;;;;;;;24.55;53.15;96059.94;5027925;28;20028;-30
2023/06/12 09:05:46;;;;;;;5.50;3.65;;;;;;;24.55;52.87;96070.28;5035248;28;20044;-30
2023/06/12 09:08:11;;;;;;;10.65;4.10;;;;;;;24.56;53.11;96060.69;5035213;28;20024;-29
2023/06/12 09:10:38;;;;;;;7.38;5.05;;;;;;;24.69;52.94;96064.25;5039933;28;20016;-30
2023/06/12 09:13:09;;;;;;;6.22;3.95;;;;;;;24.65;53.21;96069.34;5044774;28;20029;-31
2023/06/12 09:15:37;;;;;;;6.22;3.40;;;;;;;24.61;53.18;96062.59;5037409;28;20029;-29
2023/06/12 09:18:02;;;;;;;6.70;3.72;;;;;;;24.55;53.18;96064.72;5041624;28;20025;-29
2023/06/12 09:20:32;;;;;;;6.38;3.40;;;;;;;24.49;53.54;96056.50;5035193;28;20345;-29
2023/06/12 09:23:04;;;;;;;6.72;3.80;;;;;;;24.63;52.93;96052.50;5034942;28;20200;-29
2023/06/12 09:25:36;;;;;;;5.63;3.30;;;;;;;24.53;53.08;96058.97;5042196;28;20144;-29
2023/06/12 09:28:03;;;;;;;4.17;3.03;;;;;;;24.62;53.05;96064.84;5041923;28;20079;-29
2023/06/12 09:30:31;;;;;;;3.45;3.10;;;;;;;24.58;52.96;96058.13;5034919;28;20108;-29
2023/06/12 09:32:58;;;;;;;6.03;3.55;;;;;;;24.54;53.12;96052.91;5034512;28;20018;-29
2023/06/12 09:35:24;;;;;;;3.53;3.22;;;;;;;24.65;52.89;96058.25;5034393;28;20457;-29
2023/06/12 09:37:50;;;;;;;3.78;3.10;;;;;;;24.64;53.18;96056.75;5049087;28;20532;-29
2023/06/12 09:40:15;;;;;;;3.88;2.92;;;;;;;24.68;53.18;96062.75;5040631;28;20068;-28
2023/06/12 09:42:42;;;;;;;6.63;3.50;;;;;;;24.63;53.07;96060.06;5036206;28;20025;-29
2023/06/12 09:45:15;;;;;;;6.80;3.53;;;;;;;24.72;53.07;96056.16;5034233;28;20017;-29
2023/06/12 09:47:47;;;;;;;4.78;3.40;;;;;;;24.76;52.91;96056.56;5034692;28;20049;-29
2023/06/12 09:50:15;;;;;;;3.97;3.00;;;;;;;24.68;53.09;96057.19;5034820;28;20029;-29
2023/06/12 09:52:43;;;;;;;5.07;3.33;;;;;;;24.72;53.14;96048.59;5034146;28;20108;-29
2023/06/12 09:55:12;;;;;;;7.80;2.80;;;;;;;24.77;53.27;96049.75;5048472;28;20095;-29
2023/06/12 09:57:40;;;;;;;7.00;3.30;;;;;;;24.66;53.13;96051.44;5034045;28;20032;-30
2023/06/12 10:00:11;;;;;;;4.25;2.92;;;;;;;24.79;52.91;96055.50;5034404;28;20047;-30
2023/06/12 10:02:41;;;;;;;5.18;3.20;;;;;;;24.81;52.54;96053.72;5033938;28;20014;-29
2023/06/12 10:05:23;;;;;;;7.22;3.00;;;;;;;24.83;52.77;96055.97;5034663;28;20017;-31
2023/06/12 10:07:52;;;;;;;7.50;3.60;;;;;;;24.79;52.25;96055.50;5041182;28;20021;-29
2023/06/12 10:10:19;;;;;;;3.60;2.40;;;;;;;24.80;52.01;96057.75;5041738;28;20036;-29
2023/06/12 10:12:45;;;;;;;3.25;2.70;;;;;;;24.84;52.04;96058.22;5038369;28;20361;-29
2023/06/12 10:15:12;;;;;;;4.70;2.90;;;;;;;24.78;51.99;96048.47;5034464;28;20013;-29
2023/06/12 10:17:40;;;;;;;5.68;2.83;;;;;;;24.81;52.38;96053.72;5037489;28;20032;-30
2023/06/12 10:20:09;;;;;;;4.15;3.08;;;;;;;24.87;52.40;96061.94;5043513;28;20024;-29
2023/06/12 10:22:35;;;;;;;10.88;3.15;;;;;;;24.82;52.46;96049.66;5043423;28;20056;-29
2023/06/12 10:25:02;;;;;;;3.88;2.70;;;;;;;24.90;52.69;96052.53;5038127;28;20349;-30
2023/06/12 10:27:29;;;;;;;5.45;2.95;;;;;;;24.78;53.08;96060.31;5034029;28;20060;-29
2023/06/12 10:29:57;;;;;;;3.90;2.90;;;;;;;24.81;53.10;96052.97;5033862;28;20031;-29
2023/06/12 10:32:23;;;;;;;3.13;2.83;;;;;;;24.76;52.63;96056.56;5033585;28;20517;-29
2023/06/12 10:34:53;;;;;;;6.43;2.83;;;;;;;24.77;53.02;96049.75;5041102;28;20025;-29
2023/06/12 10:37:26;;;;;;;2.80;2.60;;;;;;;24.90;52.39;96053.28;5033813;28;20025;-29
2023/06/12 10:40:12;;;;;;;;;;;;;;;24.93;52.60;96054.28;5033833;28;20087;-29
2023/06/12 10:42:39;;;;;;;3.40;2.47;;;;;;;24.88;52.72;96052.31;5033747;28;19932;-29
2023/06/12 10:45:16;;;;;;;2.65;2.25;;;;;;;24.83;52.74;96050.41;5033410;28;20385;-29
2023/06/12 10:47:41;;;;;;;3.72;2.47;;;;;;;24.84;52.57;96044.34;5039850;28;20021;-29
2023/06/12 10:50:08;;;;;;;2.72;2.40;;;;;;;24.86;52.51;96052.09;5040994;28;20019;-29
2023/06/12 10:52:34;;;;;;;3.15;2.53;;;;;;;24.81;52.68;96052.97;5033448;28;20483;-29
2023/06/12 10:55:19;;;;;;;4.38;2.72;;;;;;;24.88;52.48;96057.88;5033891;28;20120;-29
2023/06/12 10:57:55;;;;;;;2.80;2.47;;;;;;;24.93;52.41;96059.84;5033448;28;20489;-29
2023/06/12 11:00:38;;;;;;;5.95;2.70;;;;;;;24.94;51.80;96053.03;5032919;28;20045;-29
2023/06/12 11:03:12;;;;;;;2.60;2.40;;;;;;;24.84;52.43;96049.13;5040666;28;20017;-29
2023/06/12 11:05:39;;;;;;;4.45;2.50;;;;;;;24.88;52.18;96041.97;5033642;28;20035;-29
2023/06/12 11:08:08;;;;;;;3.00;2.40;;;;;;;24.90;52.20;96047.75;5035680;28;20436;-29
2023/06/12 11:10:35;;;;;;;5.00;2.80;;;;;;;24.90;52.23;96047.00;5037325;28;20558;-30
2023/06/12 11:13:02;;;;;;;4.72;2.67;;;;;;;24.96;51.94;96045.66;5044388;28;20033;-29
2023/06/12 11:15:28;;;;;;;3.28;2.42;;;;;;;24.89;52.20;96048.28;5036026;28;20024;-31
2023/06/12 11:17:54;;;;;;;6.22;2.83;;;;;;;24.94;52.32;96050.25;5043212;28;20027;-32
2023/06/12 11:20:22;;;;;;;6.93;2.60;;;;;;;25.01;51.96;96042.03;5045640;28;20022;-28
2023/06/12 11:22:48;;;;;;;3.85;2.30;;;;;;;24.99;51.97;96039.03;5037281;28;20013;-29
2023/06/12 11:25:16;;;;;;;2.60;2.40;;;;;;;24.94;52.10;96037.13;5036623;28;20033;-29
2023/06/12 11:27:42;;;;;;;3.45;2.38;;;;;;;24.98;51.63;96028.47;5029711;28;20547;-29
2023/06/12 11:30:08;;;;;;;2.63;2.30;;;;;;;24.97;51.93;96038.09;5044169;28;20029;-29
2023/06/12 11:32:34;;;;;;;3.95;2.33;;;;;;;24.96;52.33;96033.81;5043806;28;20029;-30
2023/06/12 11:35:02;;;;;;;3.78;2.47;;;;;;;25.01;51.95;96033.72;5037168;28;20025;-29